sensor_id;sensor_type;location;lat;lon;timestamp;pressure;altitude;pressure_sealevel;temperature;humidity
26043;BME280;13818;52.156;5.382;2023-11-18T00:01:16;102091.47;;;5.37;100.00
26043;BME280;13818;52.156;5.382;2023-11-18T00:03:44;102097.66;;;5.33;100.00
26043;BME280;13818;52.156;5.382;2023-11-18T00:06:11;102096.81;;;5.28;100.00
26043;BME280;13818;52.156;5.382;2023-11-18T00:08:38;102094.16;;;5.28;100.00
26043;BME280;13818;52.156;5.382;2023-11-18T00:11:04;102100.31;;;5.30;100.00
26043;BME280;13818;52.156;5.382;2023-11-18T00:13:32;102096.78;;;5.30;100.00
26043;BME280;13818;52.156;5.382;2023-11-18T00:15:58;102093.25;;;5.32;100.00
26043;BME280;13818;52.156;5.382;2023-11-18T00:18:24;102097.66;;;5.30;100.00
26043;BME280;13818;52.156;5.382;2023-11-18T00:20:52;102096.78;;;5.30;100.00
26043;BME280;13818;52.156;5.382;2023-11-18T00:23:19;102096.81;;;5.28;100.00
26043;BME280;13818;52.156;5.382;2023-11-18T00:25:46;102092.41;;;5.22;100.00
26043;BME280;13818;52.156;5.382;2023-11-18T00:28:12;102093.28;;;5.26;100.00
26043;BME280;13818;52.156;5.382;2023-11-18T00:30:38;102098.56;;;5.28;100.00
26043;BME280;13818;52.156;5.382;2023-11-18T00:33:05;102096.81;;;5.25;100.00
26043;BME280;13818;52.156;5.382;2023-11-18T00:35:31;102084.50;;;5.21;100.00
26043;BME280;13818;52.156;5.382;2023-11-18T00:38:00;102087.16;;;5.19;100.00
26043;BME280;13818;52.156;5.382;2023-11-18T00:40:27;102082.72;;;5.20;100.00
26043;BME280;13818;52.156;5.382;2023-11-18T00:42:54;102082.69;;;5.26;100.00
26043;BME280;13818;52.156;5.382;2023-11-18T00:45:21;102080.97;;;5.22;100.00
26043;BME280;13818;52.156;5.382;2023-11-18T00:47:47;102083.59;;;5.20;100.00
26043;BME280;13818;52.156;5.382;2023-11-18T00:50:14;102085.38;;;5.20;100.00
26043;BME280;13818;52.156;5.382;2023-11-18T00:52:40;102095.06;;;5.16;100.00
26043;BME280;13818;52.156;5.382;2023-11-18T00:55:09;102089.78;;;5.16;100.00
26043;BME280;13818;52.156;5.382;2023-11-18T00:57:36;102088.00;;;5.17;100.00
26043;BME280;13818;52.156;5.382;2023-11-18T01:00:05;102090.66;;;5.18;100.00
26043;BME280;13818;52.156;5.382;2023-11-18T01:02:32;102100.34;;;5.18;100.00
26043;BME280;13818;52.156;5.382;2023-11-18T01:04:58;102105.63;;;5.18;100.00
26043;BME280;13818;52.156;5.382;2023-11-18T01:07:25;102101.22;;;5.15;100.00
26043;BME280;13818;52.156;5.382;2023-11-18T01:09:51;102109.16;;;5.17;100.00
26043;BME280;13818;52.156;5.382;2023-11-18T01:12:19;102106.53;;;5.15;100.00
26043;BME280;13818;52.156;5.382;2023-11-18T01:14:46;102095.97;;;5.12;100.00
26043;BME280;13818;52.156;5.382;2023-11-18T01:17:12;102097.72;;;5.10;100.00
26043;BME280;13818;52.156;5.382;2023-11-18T01:19:39;102095.97;;;5.12;100.00
26043;BME280;13818;52.156;5.382;2023-11-18T01:22:05;102094.19;;;5.13;100.00
26043;BME280;13818;52.156;5.382;2023-11-18T01:24:32;102110.06;;;5.16;100.00
26043;BME280;13818;52.156;5.382;2023-11-18T01:26:59;102109.16;;;5.15;100.00
26043;BME280;13818;52.156;5.382;2023-11-18T01:29:26;102109.16;;;5.15;100.00
26043;BME280;13818;52.156;5.382;2023-11-18T01:31:53;102110.94;;;5.19;100.00
26043;BME280;13818;52.156;5.382;2023-11-18T01:34:21;102109.13;;;5.23;100.00
26043;BME280;13818;52.156;5.382;2023-11-18T01:36:47;102118.81;;;5.26;100.00
26043;BME280;13818;52.156;5.382;2023-11-18T01:39:14;102117.09;;;5.25;100.00
26043;BME280;13818;52.156;5.382;2023-11-18T01:41:42;102103.88;;;5.25;100.00
26043;BME280;13818;52.156;5.382;2023-11-18T01:44:09;102107.38;;;5.25;100.00
26043;BME280;13818;52.156;5.382;2023-11-18T01:46:37;102107.38;;;5.25;100.00
26043;BME280;13818;52.156;5.382;2023-11-18T01:49:03;102097.72;;;5.21;100.00
26043;BME280;13818;52.156;5.382;2023-11-18T01:51:30;102099.44;;;5.20;100.00
26043;BME280;13818;52.156;5.382;2023-11-18T01:53:59;102100.38;;;5.19;100.00
26043;BME280;13818;52.156;5.382;2023-11-18T01:56:26;102103.00;;;5.16;100.00
26043;BME280;13818;52.156;5.382;2023-11-18T01:58:53;102092.44;;;5.13;100.00
26043;BME280;13818;52.156;5.382;2023-11-18T02:01:20;102092.44;;;5.12;100.00
26043;BME280;13818;52.156;5.382;2023-11-18T02:03:48;102096.84;;;5.13;100.00
26043;BME280;13818;52.156;5.382;2023-11-18T02:06:15;102100.34;;;5.12;100.00
26043;BME280;13818;52.156;5.382;2023-11-18T02:08:41;102097.72;;;5.10;100.00
26043;BME280;13818;52.156;5.382;2023-11-18T02:11:15;102095.97;;;5.09;100.00
26043;BME280;13818;52.156;5.382;2023-11-18T02:13:48;102104.75;;;5.14;100.00
26043;BME280;13818;52.156;5.382;2023-11-18T02:16:16;102105.66;;;5.15;100.00
26043;BME280;13818;52.156;5.382;2023-11-18T02:18:45;102110.91;;;5.18;100.00
26043;BME280;13818;52.156;5.382;2023-11-18T02:21:16;102106.50;;;5.20;100.00
26043;BME280;13818;52.156;5.382;2023-11-18T02:23:43;102104.75;;;5.20;100.00
26043;BME280;13818;52.156;5.382;2023-11-18T02:26:20;102116.19;;;5.22;100.00
26043;BME280;13818;52.156;5.382;2023-11-18T02:28:47;102106.50;;;5.21;100.00
26043;BME280;13818;52.156;5.382;2023-11-18T02:31:17;102108.28;;;5.18;100.00
26043;BME280;13818;52.156;5.382;2023-11-18T02:33:51;102100.38;;;5.15;100.00
26043;BME280;13818;52.156;5.382;2023-11-18T02:36:28;102101.22;;;5.17;100.00
26043;BME280;13818;52.156;5.382;2023-11-18T02:39:04;102104.75;;;5.17;100.00
26043;BME280;13818;52.156;5.382;2023-11-18T02:41:34;102100.34;;;5.22;100.00
26043;BME280;13818;52.156;5.382;2023-11-18T02:44:02;102098.53;;;5.32;100.00
26043;BME280;13818;52.156;5.382;2023-11-18T02:46:34;102099.34;;;5.48;100.00
26043;BME280;13818;52.156;5.382;2023-11-18T02:49:01;102097.56;;;5.50;100.00
26043;BME280;13818;52.156;5.382;2023-11-18T02:51:27;102082.59;;;5.49;100.00
26043;BME280;13818;52.156;5.382;2023-11-18T02:53:55;102086.97;;;5.52;100.00
26043;BME280;13818;52.156;5.382;2023-11-18T02:56:22;102079.97;;;5.45;100.00
26043;BME280;13818;52.156;5.382;2023-11-18T02:58:50;102074.69;;;5.43;100.00
26043;BME280;13818;52.156;5.382;2023-11-18T03:01:16;102065.88;;;5.38;100.00
26043;BME280;13818;52.156;5.382;2023-11-18T03:03:44;102069.41;;;5.37;100.00
26043;BME280;13818;52.156;5.382;2023-11-18T03:06:11;102063.28;;;5.35;100.00
26043;BME280;13818;52.156;5.382;2023-11-18T03:08:38;102069.44;;;5.34;100.00
26043;BME280;13818;52.156;5.382;2023-11-18T03:11:06;102063.28;;;5.32;100.00
26043;BME280;13818;52.156;5.382;2023-11-18T03:13:34;102065.06;;;5.31;100.00
26043;BME280;13818;52.156;5.382;2023-11-18T03:16:06;102079.16;;;5.33;100.00
26043;BME280;13818;52.156;5.382;2023-11-18T03:18:38;102072.09;;;5.34;100.00
26043;BME280;13818;52.156;5.382;2023-11-18T03:21:06;102067.66;;;5.34;100.00
26043;BME280;13818;52.156;5.382;2023-11-18T03:23:33;102067.69;;;5.33;100.00
26043;BME280;13818;52.156;5.382;2023-11-18T03:26:00;102065.06;;;5.31;100.00
26043;BME280;13818;52.156;5.382;2023-11-18T03:28:26;102058.00;;;5.33;100.00
26043;BME280;13818;52.156;5.382;2023-11-18T03:30:52;102050.06;;;5.32;100.00
26043;BME280;13818;52.156;5.382;2023-11-18T03:33:21;102053.59;;;5.32;100.00
26043;BME280;13818;52.156;5.382;2023-11-18T03:35:47;102053.59;;;5.32;100.00
26043;BME280;13818;52.156;5.382;2023-11-18T03:38:14;102046.53;;;5.31;100.00
26043;BME280;13818;52.156;5.382;2023-11-18T03:40:42;102035.97;;;5.31;100.00
26043;BME280;13818;52.156;5.382;2023-11-18T03:43:10;102037.75;;;5.31;100.00
26043;BME280;13818;52.156;5.382;2023-11-18T03:45:38;102031.53;;;5.32;100.00
26043;BME280;13818;52.156;5.382;2023-11-18T03:48:05;102028.91;;;5.32;100.00
26043;BME280;13818;52.156;5.382;2023-11-18T03:50:33;102019.22;;;5.32;100.00
26043;BME280;13818;52.156;5.382;2023-11-18T03:52:59;102016.56;;;5.34;100.00
26043;BME280;13818;52.156;5.382;2023-11-18T03:55:26;102007.72;;;5.38;100.00
26043;BME280;13818;52.156;5.382;2023-11-18T03:57:53;102003.31;;;5.38;100.00
26043;BME280;13818;52.156;5.382;2023-11-18T04:00:20;101990.09;;;5.37;100.00
26043;BME280;13818;52.156;5.382;2023-11-18T04:02:46;102001.56;;;5.37;100.00
26043;BME280;13818;52.156;5.382;2023-11-18T04:05:13;101998.03;;;5.40;100.00
26043;BME280;13818;52.156;5.382;2023-11-18T04:07:41;101989.22;;;5.40;100.00
26043;BME280;13818;52.156;5.382;2023-11-18T04:10:08;101984.81;;;5.40;100.00
26043;BME280;13818;52.156;5.382;2023-11-18T04:12:36;101985.66;;;5.44;100.00
26043;BME280;13818;52.156;5.382;2023-11-18T04:15:03;101980.38;;;5.44;100.00
26043;BME280;13818;52.156;5.382;2023-11-18T04:17:30;101993.59;;;5.45;100.00
26043;BME280;13818;52.156;5.382;2023-11-18T04:19:56;101997.94;;;5.49;100.00
26043;BME280;13818;52.156;5.382;2023-11-18T04:22:23;101991.78;;;5.50;100.00
26043;BME280;13818;52.156;5.382;2023-11-18T04:24:51;101978.56;;;5.50;100.00
26043;BME280;13818;52.156;5.382;2023-11-18T04:27:17;101966.22;;;5.51;100.00
26043;BME280;13818;52.156;5.382;2023-11-18T04:29:44;101955.63;;;5.52;100.00
26043;BME280;13818;52.156;5.382;2023-11-18T04:32:10;101954.75;;;5.53;100.00
26043;BME280;13818;52.156;5.382;2023-11-18T04:34:39;101959.13;;;5.56;100.00
26043;BME280;13818;52.156;5.382;2023-11-18T04:37:07;101952.94;;;5.57;100.00
26043;BME280;13818;52.156;5.382;2023-11-18T04:39:34;101951.19;;;5.54;100.00
26043;BME280;13818;52.156;5.382;2023-11-18T04:42:04;101952.94;;;5.56;100.00
26043;BME280;13818;52.156;5.382;2023-11-18T04:44:30;101955.56;;;5.57;100.00
26043;BME280;13818;52.156;5.382;2023-11-18T04:46:56;101945.91;;;5.58;100.00
26043;BME280;13818;52.156;5.382;2023-11-18T04:49:23;101936.16;;;5.60;100.00
26043;BME280;13818;52.156;5.382;2023-11-18T04:51:49;101942.31;;;5.63;100.00
26043;BME280;13818;52.156;5.382;2023-11-18T04:54:16;101931.72;;;5.63;100.00
26043;BME280;13818;52.156;5.382;2023-11-18T04:56:44;101932.59;;;5.65;100.00
26043;BME280;13818;52.156;5.382;2023-11-18T04:59:12;101941.38;;;5.70;100.00
26043;BME280;13818;52.156;5.382;2023-11-18T05:01:39;101930.81;;;5.69;100.00
26043;BME280;13818;52.156;5.382;2023-11-18T05:04:05;101940.41;;;5.79;100.00
26043;BME280;13818;52.156;5.382;2023-11-18T05:06:33;101939.53;;;5.80;100.00
26043;BME280;13818;52.156;5.382;2023-11-18T05:09:00;101939.56;;;5.79;100.00
26043;BME280;13818;52.156;5.382;2023-11-18T05:11:26;101949.19;;;5.84;100.00
26043;BME280;13818;52.156;5.382;2023-11-18T05:13:52;101943.94;;;5.81;100.00
26043;BME280;13818;52.156;5.382;2023-11-18T05:16:22;101940.41;;;5.79;100.00
26043;BME280;13818;52.156;5.382;2023-11-18T05:18:49;101926.31;;;5.77;100.00
26043;BME280;13818;52.156;5.382;2023-11-18T05:21:15;101920.19;;;5.75;100.00
26043;BME280;13818;52.156;5.382;2023-11-18T05:23:42;101921.88;;;5.81;100.00
26043;BME280;13818;52.156;5.382;2023-11-18T05:26:08;101914.81;;;5.83;100.00
26043;BME280;13818;52.156;5.382;2023-11-18T05:28:35;101917.47;;;5.83;100.00
26043;BME280;13818;52.156;5.382;2023-11-18T05:31:01;101912.97;;;5.91;100.00
26043;BME280;13818;52.156;5.382;2023-11-18T05:33:30;101920.84;;;5.97;100.00
26043;BME280;13818;52.156;5.382;2023-11-18T05:35:57;101914.69;;;5.97;100.00
26043;BME280;13818;52.156;5.382;2023-11-18T05:38:23;101911.09;;;6.07;100.00
26043;BME280;13818;52.156;5.382;2023-11-18T05:40:53;101916.34;;;6.12;100.00
26043;BME280;13818;52.156;5.382;2023-11-18T05:43:22;101915.50;;;6.08;100.00
26043;BME280;13818;52.156;5.382;2023-11-18T05:45:51;101911.16;;;5.99;100.00
26043;BME280;13818;52.156;5.382;2023-11-18T05:48:38;101905.00;;;5.99;100.00
26043;BME280;13818;52.156;5.382;2023-11-18T05:51:05;101897.06;;;5.99;100.00
26043;BME280;13818;52.156;5.382;2023-11-18T05:53:31;101908.50;;;5.98;100.00
26043;BME280;13818;52.156;5.382;2023-11-18T05:55:58;101893.50;;;5.97;100.00
26043;BME280;13818;52.156;5.382;2023-11-18T05:58:24;101877.66;;;5.92;100.00
26043;BME280;13818;52.156;5.382;2023-11-18T06:00:51;101887.41;;;5.90;100.00
26043;BME280;13818;52.156;5.382;2023-11-18T06:03:17;101872.41;;;5.91;100.00
26043;BME280;13818;52.156;5.382;2023-11-18T06:05:47;101883.84;;;5.91;100.00
26043;BME280;13818;52.156;5.382;2023-11-18T06:08:14;101890.88;;;5.95;100.00
26043;BME280;13818;52.156;5.382;2023-11-18T06:10:40;101881.19;;;5.99;100.00
26043;BME280;13818;52.156;5.382;2023-11-18T06:13:10;101876.78;;;5.96;100.00
26043;BME280;13818;52.156;5.382;2023-11-18T06:15:38;101873.28;;;5.93;100.00
26043;BME280;13818;52.156;5.382;2023-11-18T06:18:04;101871.47;;;5.95;100.00
26043;BME280;13818;52.156;5.382;2023-11-18T06:20:34;101874.13;;;5.93;100.00
26043;BME280;13818;52.156;5.382;2023-11-18T06:23:01;101877.66;;;5.92;100.00
26043;BME280;13818;52.156;5.382;2023-11-18T06:25:28;101868.81;;;5.95;100.00
26043;BME280;13818;52.156;5.382;2023-11-18T06:27:56;101875.84;;;5.97;100.00
26043;BME280;13818;52.156;5.382;2023-11-18T06:30:24;101872.31;;;6.00;100.00
26043;BME280;13818;52.156;5.382;2023-11-18T06:32:51;101861.75;;;5.97;100.00
26043;BME280;13818;52.156;5.382;2023-11-18T06:35:17;101852.94;;;5.96;100.00
26043;BME280;13818;52.156;5.382;2023-11-18T06:37:46;101859.09;;;5.97;100.00
26043;BME280;13818;52.156;5.382;2023-11-18T06:40:14;101856.44;;;6.00;100.00
26043;BME280;13818;52.156;5.382;2023-11-18T06:42:43;101864.41;;;6.01;100.00
26043;BME280;13818;52.156;5.382;2023-11-18T06:45:12;101862.63;;;6.02;100.00
26043;BME280;13818;52.156;5.382;2023-11-18T06:47:38;101870.50;;;6.08;100.00
26043;BME280;13818;52.156;5.382;2023-11-18T06:50:08;101874.91;;;6.09;100.00
26043;BME280;13818;52.156;5.382;2023-11-18T06:52:36;101859.00;;;6.09;100.00
26043;BME280;13818;52.156;5.382;2023-11-18T06:55:04;101864.31;;;6.06;100.00
26043;BME280;13818;52.156;5.382;2023-11-18T06:57:32;101874.91;;;6.09;100.00
26043;BME280;13818;52.156;5.382;2023-11-18T06:59:58;101885.50;;;6.08;100.00
26043;BME280;13818;52.156;5.382;2023-11-18T07:02:25;101878.41;;;6.10;100.00
26043;BME280;13818;52.156;5.382;2023-11-18T07:04:51;101872.28;;;6.08;100.00
26043;BME280;13818;52.156;5.382;2023-11-18T07:07:18;101864.31;;;6.09;100.00
26043;BME280;13818;52.156;5.382;2023-11-18T07:09:44;101855.47;;;6.10;100.00
26043;BME280;13818;52.156;5.382;2023-11-18T07:12:10;101861.63;;;6.11;100.00
26043;BME280;13818;52.156;5.382;2023-11-18T07:14:38;101873.91;;;6.16;100.00
26043;BME280;13818;52.156;5.382;2023-11-18T07:17:05;101872.19;;;6.15;100.00
26043;BME280;13818;52.156;5.382;2023-11-18T07:19:33;101866.88;;;6.15;100.00
26043;BME280;13818;52.156;5.382;2023-11-18T07:22:00;101873.09;;;6.13;100.00
26043;BME280;13818;52.156;5.382;2023-11-18T07:24:27;101875.72;;;6.11;100.00
26043;BME280;13818;52.156;5.382;2023-11-18T07:26:55;101887.16;;;6.15;100.00
26043;BME280;13818;52.156;5.382;2023-11-18T07:29:22;101881.00;;;6.14;100.00
26043;BME280;13818;52.156;5.382;2023-11-18T07:31:50;101880.09;;;6.17;100.00
26043;BME280;13818;52.156;5.382;2023-11-18T07:34:17;101886.31;;;6.14;100.00
26043;BME280;13818;52.156;5.382;2023-11-18T07:36:43;101893.38;;;6.15;100.00
26043;BME280;13818;52.156;5.382;2023-11-18T07:39:11;101908.31;;;6.16;100.00
26043;BME280;13818;52.156;5.382;2023-11-18T07:41:41;101898.66;;;6.14;100.00
26043;BME280;13818;52.156;5.382;2023-11-18T07:44:07;101892.53;;;6.10;100.00
26043;BME280;13818;52.156;5.382;2023-11-18T07:46:35;101881.94;;;6.12;100.00
26043;BME280;13818;52.156;5.382;2023-11-18T07:49:05;101868.69;;;6.12;100.00
26043;BME280;13818;52.156;5.382;2023-11-18T07:51:31;101871.34;;;6.12;100.00
26043;BME280;13818;52.156;5.382;2023-11-18T07:53:58;101879.22;;;6.15;100.00
26043;BME280;13818;52.156;5.382;2023-11-18T07:56:25;101867.78;;;6.14;100.00
26043;BME280;13818;52.156;5.382;2023-11-18T07:58:52;101859.84;;;6.14;100.00
26043;BME280;13818;52.156;5.382;2023-11-18T08:01:20;101860.75;;;6.12;100.00
26043;BME280;13818;52.156;5.382;2023-11-18T08:03:46;101858.06;;;6.15;100.00
26043;BME280;13818;52.156;5.382;2023-11-18T08:06:14;101844.81;;;6.15;100.00
26043;BME280;13818;52.156;5.382;2023-11-18T08:08:42;101846.59;;;6.14;100.00
26043;BME280;13818;52.156;5.382;2023-11-18T08:11:10;101843.06;;;6.14;100.00
26043;BME280;13818;52.156;5.382;2023-11-18T08:13:37;101835.97;;;6.17;100.00
26043;BME280;13818;52.156;5.382;2023-11-18T08:16:04;101845.63;;;6.20;100.00
26043;BME280;13818;52.156;5.382;2023-11-18T08:18:32;101838.63;;;6.19;100.00
26043;BME280;13818;52.156;5.382;2023-11-18T08:20:59;101837.69;;;6.22;100.00
26043;BME280;13818;52.156;5.382;2023-11-18T08:23:28;101826.16;;;6.26;100.00
26043;BME280;13818;52.156;5.382;2023-11-18T08:25:55;101838.53;;;6.27;100.00
26043;BME280;13818;52.156;5.382;2023-11-18T08:28:22;101825.25;;;6.28;100.00
26043;BME280;13818;52.156;5.382;2023-11-18T08:30:48;101826.97;;;6.31;100.00
26043;BME280;13818;52.156;5.382;2023-11-18T08:33:16;101827.84;;;6.31;100.00
26043;BME280;13818;52.156;5.382;2023-11-18T08:35:43;101819.00;;;6.35;100.00
26043;BME280;13818;52.156;5.382;2023-11-18T08:38:10;101810.13;;;6.37;100.00
26043;BME280;13818;52.156;5.382;2023-11-18T08:40:39;101805.66;;;6.40;100.00
26043;BME280;13818;52.156;5.382;2023-11-18T08:43:05;101798.56;;;6.44;100.00
26043;BME280;13818;52.156;5.382;2023-11-18T08:45:33;101802.00;;;6.50;100.00
26043;BME280;13818;52.156;5.382;2023-11-18T08:48:01;101798.44;;;6.51;100.00
26043;BME280;13818;52.156;5.382;2023-11-18T08:50:29;101801.94;;;6.55;100.00
26043;BME280;13818;52.156;5.382;2023-11-18T08:52:56;101802.78;;;6.59;100.00
26043;BME280;13818;52.156;5.382;2023-11-18T08:55:24;101790.34;;;6.64;100.00
26043;BME280;13818;52.156;5.382;2023-11-18T08:58:05;101794.72;;;6.66;100.00
26043;BME280;13818;52.156;5.382;2023-11-18T09:00:42;101791.09;;;6.74;100.00
26043;BME280;13818;52.156;5.382;2023-11-18T09:03:11;101778.69;;;6.76;100.00
26043;BME280;13818;52.156;5.382;2023-11-18T09:05:43;101775.16;;;6.75;100.00
26043;BME280;13818;52.156;5.382;2023-11-18T09:08:23;101765.38;;;6.79;100.00
26043;BME280;13818;52.156;5.382;2023-11-18T09:10:49;101744.22;;;6.77;100.00
26043;BME280;13818;52.156;5.382;2023-11-18T09:13:22;101749.44;;;6.83;100.00
26043;BME280;13818;52.156;5.382;2023-11-18T09:15:54;101751.19;;;6.83;100.00
26043;BME280;13818;52.156;5.382;2023-11-18T09:18:21;101752.91;;;6.87;100.00
26043;BME280;13818;52.156;5.382;2023-11-18T09:20:47;101745.75;;;6.91;100.00
26043;BME280;13818;52.156;5.382;2023-11-18T09:23:14;101735.13;;;6.94;100.00
26043;BME280;13818;52.156;5.382;2023-11-18T09:25:41;101743.78;;;7.02;100.00
26043;BME280;13818;52.156;5.382;2023-11-18T09:28:12;101729.72;;;7.00;100.00
26043;BME280;13818;52.156;5.382;2023-11-18T09:30:41;101732.38;;;7.00;100.00
26043;BME280;13818;52.156;5.382;2023-11-18T09:33:16;101722.63;;;7.00;100.00
26043;BME280;13818;52.156;5.382;2023-11-18T09:35:51;101729.75;;;6.97;100.00
26043;BME280;13818;52.156;5.382;2023-11-18T09:38:21;101704.97;;;6.99;100.00
26043;BME280;13818;52.156;5.382;2023-11-18T09:40:49;101697.00;;;6.99;100.00
26043;BME280;13818;52.156;5.382;2023-11-18T09:43:18;101677.63;;;6.97;100.00
26043;BME280;13818;52.156;5.382;2023-11-18T09:45:49;101686.44;;;6.98;100.00
26043;BME280;13818;52.156;5.382;2023-11-18T09:48:20;101691.66;;;7.03;100.00
26043;BME280;13818;52.156;5.382;2023-11-18T09:50:51;101678.53;;;6.96;100.00
26043;BME280;13818;52.156;5.382;2023-11-18T09:53:18;101688.22;;;6.97;100.00
26043;BME280;13818;52.156;5.382;2023-11-18T09:55:50;101680.28;;;6.97;100.00
26043;BME280;13818;52.156;5.382;2023-11-18T09:58:20;101690.88;;;6.97;100.00
26043;BME280;13818;52.156;5.382;2023-11-18T10:00:54;101689.91;;;7.02;100.00
26043;BME280;13818;52.156;5.382;2023-11-18T10:03:24;101688.13;;;7.02;100.00
26043;BME280;13818;52.156;5.382;2023-11-18T10:05:51;101696.88;;;7.07;100.00
26043;BME280;13818;52.156;5.382;2023-11-18T10:08:20;101701.28;;;7.08;100.00
26043;BME280;13818;52.156;5.382;2023-11-18T10:10:51;101691.50;;;7.12;100.00
26043;BME280;13818;52.156;5.382;2023-11-18T10:13:30;101675.66;;;7.07;100.00
26043;BME280;13818;52.156;5.382;2023-11-18T10:16:02;101674.00;;;7.02;100.00
26043;BME280;13818;52.156;5.382;2023-11-18T10:18:30;101683.72;;;7.03;100.00
26043;BME280;13818;52.156;5.382;2023-11-18T10:21:00;101679.28;;;7.03;100.00
26043;BME280;13818;52.156;5.382;2023-11-18T10:23:29;101672.97;;;7.10;100.00
26043;BME280;13818;52.156;5.382;2023-11-18T10:25:59;101673.03;;;7.06;100.00
26043;BME280;13818;52.156;5.382;2023-11-18T10:28:29;101671.28;;;7.05;100.00
26043;BME280;13818;52.156;5.382;2023-11-18T10:30:58;101679.31;;;7.02;100.00
26043;BME280;13818;52.156;5.382;2023-11-18T10:33:30;101678.31;;;7.07;100.00
26043;BME280;13818;52.156;5.382;2023-11-18T10:35:58;101667.75;;;7.06;100.00
26043;BME280;13818;52.156;5.382;2023-11-18T10:38:29;101663.28;;;7.08;100.00
26043;BME280;13818;52.156;5.382;2023-11-18T10:40:57;101643.84;;;7.07;100.00
26043;BME280;13818;52.156;5.382;2023-11-18T10:43:26;101646.41;;;7.12;100.00
26043;BME280;13818;52.156;5.382;2023-11-18T10:46:04;101638.53;;;7.09;100.00
26043;BME280;13818;52.156;5.382;2023-11-18T10:48:39;101631.41;;;7.11;100.00
26043;BME280;13818;52.156;5.382;2023-11-18T10:51:08;101621.63;;;7.14;100.00
26043;BME280;13818;52.156;5.382;2023-11-18T10:53:37;101622.53;;;7.15;100.00
26043;BME280;13818;52.156;5.382;2023-11-18T10:56:04;101617.19;;;7.16;100.00
26043;BME280;13818;52.156;5.382;2023-11-18T10:58:35;101615.38;;;7.17;100.00
26043;BME280;13818;52.156;5.382;2023-11-18T11:01:03;101606.53;;;7.18;100.00
26043;BME280;13818;52.156;5.382;2023-11-18T11:03:30;101605.63;;;7.19;100.00
26043;BME280;13818;52.156;5.382;2023-11-18T11:06:15;101595.03;;;7.19;100.00
26043;BME280;13818;52.156;5.382;2023-11-18T11:08:43;101597.56;;;7.25;100.00
26043;BME280;13818;52.156;5.382;2023-11-18T11:11:10;101595.81;;;7.24;100.00
26043;BME280;13818;52.156;5.382;2023-11-18T11:13:42;101598.47;;;7.24;100.00
26043;BME280;13818;52.156;5.382;2023-11-18T11:16:10;101584.34;;;7.24;100.00
26043;BME280;13818;52.156;5.382;2023-11-18T11:18:40;101559.72;;;7.17;100.00
26043;BME280;13818;52.156;5.382;2023-11-18T11:21:15;101545.56;;;7.18;100.00
26043;BME280;13818;52.156;5.382;2023-11-18T11:23:49;101533.16;;;7.20;100.00
26043;BME280;13818;52.156;5.382;2023-11-18T11:26:26;101512.88;;;7.16;100.00
26043;BME280;13818;52.156;5.382;2023-11-18T11:29:01;101495.22;;;7.16;100.00
26043;BME280;13818;52.156;5.382;2023-11-18T11:31:31;101464.25;;;7.17;100.00
26043;BME280;13818;52.156;5.382;2023-11-18T11:34:04;101462.50;;;7.18;100.00
26043;BME280;13818;52.156;5.382;2023-11-18T11:36:37;101459.72;;;7.22;100.00
26043;BME280;13818;52.156;5.382;2023-11-18T11:39:06;101463.22;;;7.24;100.00
26043;BME280;13818;52.156;5.382;2023-11-18T11:41:36;101462.31;;;7.25;100.00
26043;BME280;13818;52.156;5.382;2023-11-18T11:44:05;101471.09;;;7.27;100.00
26043;BME280;13818;52.156;5.382;2023-11-18T11:46:35;101454.38;;;7.25;100.00
26043;BME280;13818;52.156;5.382;2023-11-18T11:49:02;101446.28;;;7.30;100.00
26043;BME280;13818;52.156;5.382;2023-11-18T11:51:45;101445.28;;;7.36;100.00
26043;BME280;13818;52.156;5.382;2023-11-18T11:54:18;101422.22;;;7.39;100.00
26043;BME280;13818;52.156;5.382;2023-11-18T11:56:47;101394.75;;;7.42;100.00
26043;BME280;13818;52.156;5.382;2023-11-18T11:59:34;101396.47;;;7.44;100.00
26043;BME280;13818;52.156;5.382;2023-11-18T12:02:03;101409.59;;;7.51;100.00
26043;BME280;13818;52.156;5.382;2023-11-18T12:04:33;101399.78;;;7.54;100.00
26043;BME280;13818;52.156;5.382;2023-11-18T12:07:04;101380.25;;;7.57;100.00
26043;BME280;13818;52.156;5.382;2023-11-18T12:09:31;101387.31;;;7.56;100.00
26043;BME280;13818;52.156;5.382;2023-11-18T12:12:03;101374.03;;;7.58;100.00
26043;BME280;13818;52.156;5.382;2023-11-18T12:14:49;101376.59;;;7.61;100.00
26043;BME280;13818;52.156;5.382;2023-11-18T12:17:15;101371.19;;;7.65;100.00
26043;BME280;13818;52.156;5.382;2023-11-18T12:19:47;101375.41;;;7.73;100.00
26043;BME280;13818;52.156;5.382;2023-11-18T12:22:16;101366.50;;;7.75;100.00
26043;BME280;13818;52.156;5.382;2023-11-18T12:28:15;101339.03;;;7.78;100.00
26043;BME280;13818;52.156;5.382;2023-11-18T12:30:47;101325.75;;;7.78;100.00
26043;BME280;13818;52.156;5.382;2023-11-18T12:33:21;101308.00;;;7.80;100.00
26043;BME280;13818;52.156;5.382;2023-11-18T12:36:27;101304.44;;;7.81;100.00
26043;BME280;13818;52.156;5.382;2023-11-18T12:39:43;101288.47;;;7.82;100.00
26043;BME280;13818;52.156;5.382;2023-11-18T12:42:26;101284.94;;;7.82;100.00
26043;BME280;13818;52.156;5.382;2023-11-18T12:45:15;101278.00;;;7.76;100.00
26043;BME280;13818;52.156;5.382;2023-11-18T12:47:53;101274.44;;;7.77;100.00
26043;BME280;13818;52.156;5.382;2023-11-18T12:50:23;101279.75;;;7.77;100.00
26043;BME280;13818;52.156;5.382;2023-11-18T12:52:53;101248.81;;;7.78;100.00
26043;BME280;13818;52.156;5.382;2023-11-18T12:55:21;101194.06;;;7.74;100.00
26043;BME280;13818;52.156;5.382;2023-11-18T12:57:48;101166.66;;;7.73;100.00
26043;BME280;13818;52.156;5.382;2023-11-18T13:00:17;101162.31;;;7.71;100.00
26043;BME280;13818;52.156;5.382;2023-11-18T13:02:52;101183.44;;;7.74;100.00